sensor_id;sensor_type;location;lat;lon;timestamp;P1;durP1;ratioP1;P2;durP2;ratioP2
66628;SDS011;53532;53.084;6.352;2023-02-07T00:00:03;58.47;;;25.63;;
66628;SDS011;53532;53.084;6.352;2023-02-07T00:02:29;41.17;;;23.77;;
66628;SDS011;53532;53.084;6.352;2023-02-07T00:04:56;49.53;;;29.17;;
66628;SDS011;53532;53.084;6.352;2023-02-07T00:07:22;45.33;;;26.77;;
66628;SDS011;53532;53.084;6.352;2023-02-07T00:09:48;47.40;;;28.30;;
66628;SDS011;53532;53.084;6.352;2023-02-07T00:12:16;46.20;;;27.77;;
66628;SDS011;53532;53.084;6.352;2023-02-07T00:14:42;45.03;;;26.63;;
66628;SDS011;53532;53.084;6.352;2023-02-07T00:17:08;51.63;;;29.30;;
66628;SDS011;53532;53.084;6.352;2023-02-07T00:19:34;51.07;;;28.43;;
66628;SDS011;53532;53.084;6.352;2023-02-07T00:22:00;51.43;;;28.53;;
66628;SDS011;53532;53.084;6.352;2023-02-07T00:24:27;54.17;;;28.03;;
66628;SDS011;53532;53.084;6.352;2023-02-07T00:26:53;47.57;;;26.03;;
66628;SDS011;53532;53.084;6.352;2023-02-07T00:29:21;44.43;;;25.10;;
66628;SDS011;53532;53.084;6.352;2023-02-07T00:31:47;44.23;;;24.13;;
66628;SDS011;53532;53.084;6.352;2023-02-07T00:34:13;50.13;;;26.70;;
66628;SDS011;53532;53.084;6.352;2023-02-07T00:36:40;48.10;;;27.33;;
66628;SDS011;53532;53.084;6.352;2023-02-07T00:39:07;47.43;;;24.80;;
66628;SDS011;53532;53.084;6.352;2023-02-07T00:41:33;40.73;;;22.13;;
66628;SDS011;53532;53.084;6.352;2023-02-07T00:44:01;38.77;;;23.10;;
66628;SDS011;53532;53.084;6.352;2023-02-07T00:46:32;30.90;;;20.07;;
66628;SDS011;53532;53.084;6.352;2023-02-07T00:48:58;34.17;;;19.75;;
66628;SDS011;53532;53.084;6.352;2023-02-07T00:51:24;34.93;;;20.83;;
66628;SDS011;53532;53.084;6.352;2023-02-07T00:53:50;42.80;;;20.43;;
66628;SDS011;53532;53.084;6.352;2023-02-07T00:56:18;35.70;;;19.73;;
66628;SDS011;53532;53.084;6.352;2023-02-07T00:58:44;37.07;;;21.10;;
66628;SDS011;53532;53.084;6.352;2023-02-07T01:01:10;43.93;;;22.13;;
66628;SDS011;53532;53.084;6.352;2023-02-07T01:03:38;42.83;;;22.23;;
66628;SDS011;53532;53.084;6.352;2023-02-07T01:06:05;42.37;;;22.17;;
66628;SDS011;53532;53.084;6.352;2023-02-07T01:08:31;46.43;;;21.63;;
66628;SDS011;53532;53.084;6.352;2023-02-07T01:11:00;48.10;;;22.40;;
66628;SDS011;53532;53.084;6.352;2023-02-07T01:13:27;61.23;;;25.10;;
66628;SDS011;53532;53.084;6.352;2023-02-07T01:15:53;60.20;;;24.47;;
66628;SDS011;53532;53.084;6.352;2023-02-07T01:18:19;54.87;;;24.47;;
66628;SDS011;53532;53.084;6.352;2023-02-07T01:20:46;50.37;;;22.93;;
66628;SDS011;53532;53.084;6.352;2023-02-07T01:23:13;44.93;;;23.43;;
66628;SDS011;53532;53.084;6.352;2023-02-07T01:25:39;45.17;;;22.33;;
66628;SDS011;53532;53.084;6.352;2023-02-07T01:28:07;48.83;;;23.50;;
66628;SDS011;53532;53.084;6.352;2023-02-07T01:30:33;47.67;;;24.23;;
66628;SDS011;53532;53.084;6.352;2023-02-07T01:33:00;43.93;;;22.33;;
66628;SDS011;53532;53.084;6.352;2023-02-07T01:35:26;42.00;;;22.07;;
66628;SDS011;53532;53.084;6.352;2023-02-07T01:37:53;47.67;;;25.40;;
66628;SDS011;53532;53.084;6.352;2023-02-07T01:40:22;50.07;;;26.50;;
66628;SDS011;53532;53.084;6.352;2023-02-07T01:42:48;45.47;;;25.27;;
66628;SDS011;53532;53.084;6.352;2023-02-07T01:45:17;45.47;;;25.90;;
66628;SDS011;53532;53.084;6.352;2023-02-07T01:47:47;49.23;;;26.07;;
66628;SDS011;53532;53.084;6.352;2023-02-07T01:50:14;53.93;;;28.53;;
66628;SDS011;53532;53.084;6.352;2023-02-07T01:52:40;47.27;;;27.70;;
66628;SDS011;53532;53.084;6.352;2023-02-07T01:55:08;36.63;;;23.80;;
66628;SDS011;53532;53.084;6.352;2023-02-07T01:57:35;46.20;;;25.80;;
66628;SDS011;53532;53.084;6.352;2023-02-07T02:00:02;51.67;;;27.53;;
66628;SDS011;53532;53.084;6.352;2023-02-07T02:02:29;51.43;;;28.20;;
66628;SDS011;53532;53.084;6.352;2023-02-07T02:04:56;63.80;;;28.77;;
66628;SDS011;53532;53.084;6.352;2023-02-07T02:07:23;67.90;;;27.93;;
66628;SDS011;53532;53.084;6.352;2023-02-07T02:09:50;64.23;;;27.50;;
66628;SDS011;53532;53.084;6.352;2023-02-07T02:12:40;60.43;;;25.70;;
66628;SDS011;53532;53.084;6.352;2023-02-07T02:15:15;74.77;;;28.97;;
66628;SDS011;53532;53.084;6.352;2023-02-07T02:17:46;82.30;;;30.47;;
66628;SDS011;53532;53.084;6.352;2023-02-07T02:20:26;143.53;;;33.63;;
66628;SDS011;53532;53.084;6.352;2023-02-07T02:23:00;167.47;;;34.30;;
66628;SDS011;53532;53.084;6.352;2023-02-07T02:25:48;143.75;;;32.33;;
66628;SDS011;53532;53.084;6.352;2023-02-07T02:28:27;151.13;;;35.30;;
66628;SDS011;53532;53.084;6.352;2023-02-07T02:31:04;111.05;;;34.30;;
66628;SDS011;53532;53.084;6.352;2023-02-07T02:33:40;78.43;;;32.70;;
66628;SDS011;53532;53.084;6.352;2023-02-07T02:36:08;69.97;;;29.87;;
66628;SDS011;53532;53.084;6.352;2023-02-07T02:38:37;69.30;;;30.83;;
66628;SDS011;53532;53.084;6.352;2023-02-07T02:41:05;59.50;;;27.23;;
66628;SDS011;53532;53.084;6.352;2023-02-07T02:43:35;63.13;;;30.20;;
66628;SDS011;53532;53.084;6.352;2023-02-07T02:46:07;63.78;;;32.17;;
66628;SDS011;53532;53.084;6.352;2023-02-07T02:48:34;62.47;;;29.73;;
66628;SDS011;53532;53.084;6.352;2023-02-07T02:51:02;60.93;;;29.17;;
66628;SDS011;53532;53.084;6.352;2023-02-07T02:53:29;60.43;;;30.87;;
66628;SDS011;53532;53.084;6.352;2023-02-07T02:56:00;70.33;;;31.10;;
66628;SDS011;53532;53.084;6.352;2023-02-07T02:58:31;75.13;;;33.97;;
66628;SDS011;53532;53.084;6.352;2023-02-07T03:01:05;76.40;;;33.37;;
66628;SDS011;53532;53.084;6.352;2023-02-07T03:03:44;92.07;;;36.43;;
66628;SDS011;53532;53.084;6.352;2023-02-07T03:06:19;90.00;;;36.38;;
66628;SDS011;53532;53.084;6.352;2023-02-07T03:08:53;125.53;;;43.87;;
66628;SDS011;53532;53.084;6.352;2023-02-07T03:11:22;149.00;;;46.20;;
66628;SDS011;53532;53.084;6.352;2023-02-07T03:13:52;186.57;;;49.30;;
66628;SDS011;53532;53.084;6.352;2023-02-07T03:16:23;287.00;;;60.57;;
66628;SDS011;53532;53.084;6.352;2023-02-07T03:18:53;513.97;;;83.82;;
66628;SDS011;53532;53.084;6.352;2023-02-07T03:21:23;465.60;;;78.87;;
66628;SDS011;53532;53.084;6.352;2023-02-07T03:23:50;485.73;;;84.10;;
66628;SDS011;53532;53.084;6.352;2023-02-07T03:26:18;595.57;;;96.17;;
66628;SDS011;53532;53.084;6.352;2023-02-07T03:28:45;634.60;;;98.93;;
66628;SDS011;53532;53.084;6.352;2023-02-07T03:31:12;671.37;;;103.33;;
66628;SDS011;53532;53.084;6.352;2023-02-07T03:33:39;510.33;;;83.93;;
66628;SDS011;53532;53.084;6.352;2023-02-07T03:36:07;556.30;;;92.40;;
66628;SDS011;53532;53.084;6.352;2023-02-07T03:38:36;549.97;;;93.77;;
66628;SDS011;53532;53.084;6.352;2023-02-07T03:41:04;470.57;;;80.13;;
66628;SDS011;53532;53.084;6.352;2023-02-07T03:43:32;532.10;;;89.57;;
66628;SDS011;53532;53.084;6.352;2023-02-07T03:45:59;447.33;;;80.43;;
66628;SDS011;53532;53.084;6.352;2023-02-07T03:48:25;474.10;;;83.87;;
66628;SDS011;53532;53.084;6.352;2023-02-07T03:50:51;490.13;;;85.27;;
66628;SDS011;53532;53.084;6.352;2023-02-07T03:53:18;519.77;;;89.13;;
66628;SDS011;53532;53.084;6.352;2023-02-07T03:55:45;331.50;;;69.83;;
66628;SDS011;53532;53.084;6.352;2023-02-07T03:58:11;440.00;;;81.57;;
66628;SDS011;53532;53.084;6.352;2023-02-07T04:00:37;374.33;;;74.23;;
66628;SDS011;53532;53.084;6.352;2023-02-07T04:03:04;463.13;;;79.57;;
66628;SDS011;53532;53.084;6.352;2023-02-07T04:05:30;422.23;;;79.93;;
66628;SDS011;53532;53.084;6.352;2023-02-07T04:07:56;568.17;;;92.97;;
66628;SDS011;53532;53.084;6.352;2023-02-07T04:10:22;427.83;;;74.73;;
66628;SDS011;53532;53.084;6.352;2023-02-07T04:12:50;497.27;;;85.70;;
66628;SDS011;53532;53.084;6.352;2023-02-07T04:15:16;362.77;;;69.70;;
66628;SDS011;53532;53.084;6.352;2023-02-07T04:17:42;438.67;;;80.00;;
66628;SDS011;53532;53.084;6.352;2023-02-07T04:20:09;467.33;;;83.47;;
66628;SDS011;53532;53.084;6.352;2023-02-07T04:22:35;405.77;;;74.30;;
66628;SDS011;53532;53.084;6.352;2023-02-07T04:25:01;328.07;;;68.20;;
66628;SDS011;53532;53.084;6.352;2023-02-07T04:27:27;366.07;;;71.70;;
66628;SDS011;53532;53.084;6.352;2023-02-07T04:29:58;354.87;;;67.33;;
66628;SDS011;53532;53.084;6.352;2023-02-07T04:32:24;287.23;;;61.77;;
66628;SDS011;53532;53.084;6.352;2023-02-07T04:34:50;388.37;;;69.00;;
66628;SDS011;53532;53.084;6.352;2023-02-07T04:37:16;256.17;;;60.80;;
66628;SDS011;53532;53.084;6.352;2023-02-07T04:39:42;323.20;;;65.67;;
66628;SDS011;53532;53.084;6.352;2023-02-07T04:42:09;246.27;;;57.00;;
66628;SDS011;53532;53.084;6.352;2023-02-07T04:44:35;337.63;;;67.83;;
66628;SDS011;53532;53.084;6.352;2023-02-07T04:47:02;324.83;;;58.67;;
66628;SDS011;53532;53.084;6.352;2023-02-07T04:49:28;326.87;;;60.63;;
66628;SDS011;53532;53.084;6.352;2023-02-07T04:51:55;351.83;;;59.40;;
66628;SDS011;53532;53.084;6.352;2023-02-07T04:54:21;383.37;;;60.37;;
66628;SDS011;53532;53.084;6.352;2023-02-07T04:56:47;377.07;;;60.87;;
66628;SDS011;53532;53.084;6.352;2023-02-07T04:59:13;425.73;;;68.80;;
66628;SDS011;53532;53.084;6.352;2023-02-07T05:01:39;396.60;;;65.27;;
66628;SDS011;53532;53.084;6.352;2023-02-07T05:04:07;356.57;;;61.87;;
66628;SDS011;53532;53.084;6.352;2023-02-07T05:06:33;353.27;;;63.33;;
66628;SDS011;53532;53.084;6.352;2023-02-07T05:08:59;355.70;;;68.13;;
66628;SDS011;53532;53.084;6.352;2023-02-07T05:11:25;206.87;;;51.53;;
66628;SDS011;53532;53.084;6.352;2023-02-07T05:13:52;148.50;;;46.13;;
66628;SDS011;53532;53.084;6.352;2023-02-07T05:16:18;137.10;;;46.10;;
66628;SDS011;53532;53.084;6.352;2023-02-07T05:18:44;228.97;;;53.63;;
66628;SDS011;53532;53.084;6.352;2023-02-07T05:21:11;198.97;;;50.60;;
66628;SDS011;53532;53.084;6.352;2023-02-07T05:23:38;98.27;;;43.07;;
66628;SDS011;53532;53.084;6.352;2023-02-07T05:26:04;93.67;;;42.37;;
66628;SDS011;53532;53.084;6.352;2023-02-07T05:28:30;82.43;;;41.07;;
66628;SDS011;53532;53.084;6.352;2023-02-07T05:30:56;85.80;;;39.80;;
66628;SDS011;53532;53.084;6.352;2023-02-07T05:33:22;89.90;;;40.60;;
66628;SDS011;53532;53.084;6.352;2023-02-07T05:35:48;95.53;;;43.53;;
66628;SDS011;53532;53.084;6.352;2023-02-07T05:38:16;96.70;;;42.27;;
66628;SDS011;53532;53.084;6.352;2023-02-07T05:40:43;89.90;;;43.37;;
66628;SDS011;53532;53.084;6.352;2023-02-07T05:43:10;94.47;;;43.73;;
66628;SDS011;53532;53.084;6.352;2023-02-07T05:45:36;94.90;;;43.83;;
66628;SDS011;53532;53.084;6.352;2023-02-07T05:48:02;84.20;;;41.57;;
66628;SDS011;53532;53.084;6.352;2023-02-07T05:50:29;94.57;;;42.67;;
66628;SDS011;53532;53.084;6.352;2023-02-07T05:52:55;87.83;;;42.37;;
66628;SDS011;53532;53.084;6.352;2023-02-07T05:55:22;98.07;;;42.40;;
66628;SDS011;53532;53.084;6.352;2023-02-07T05:57:49;89.10;;;42.17;;
66628;SDS011;53532;53.084;6.352;2023-02-07T06:00:16;87.97;;;41.23;;
66628;SDS011;53532;53.084;6.352;2023-02-07T06:02:42;84.97;;;41.43;;
66628;SDS011;53532;53.084;6.352;2023-02-07T06:05:10;88.43;;;41.17;;
66628;SDS011;53532;53.084;6.352;2023-02-07T06:07:36;84.47;;;42.33;;
66628;SDS011;53532;53.084;6.352;2023-02-07T06:10:02;85.83;;;40.13;;
66628;SDS011;53532;53.084;6.352;2023-02-07T06:12:30;79.00;;;39.80;;
66628;SDS011;53532;53.084;6.352;2023-02-07T06:14:57;81.10;;;40.30;;
66628;SDS011;53532;53.084;6.352;2023-02-07T06:17:23;77.63;;;38.83;;
66628;SDS011;53532;53.084;6.352;2023-02-07T06:19:49;80.33;;;39.87;;
66628;SDS011;53532;53.084;6.352;2023-02-07T06:22:15;79.23;;;38.97;;
66628;SDS011;53532;53.084;6.352;2023-02-07T06:24:42;79.17;;;38.90;;
66628;SDS011;53532;53.084;6.352;2023-02-07T06:27:08;83.80;;;40.63;;
66628;SDS011;53532;53.084;6.352;2023-02-07T06:29:36;79.53;;;40.17;;
66628;SDS011;53532;53.084;6.352;2023-02-07T06:32:02;79.90;;;40.30;;
66628;SDS011;53532;53.084;6.352;2023-02-07T06:34:28;83.03;;;40.67;;
66628;SDS011;53532;53.084;6.352;2023-02-07T06:36:55;84.40;;;41.10;;
66628;SDS011;53532;53.084;6.352;2023-02-07T06:39:22;77.80;;;40.07;;
66628;SDS011;53532;53.084;6.352;2023-02-07T06:41:48;80.13;;;39.50;;
66628;SDS011;53532;53.084;6.352;2023-02-07T06:44:14;82.13;;;40.63;;
66628;SDS011;53532;53.084;6.352;2023-02-07T06:46:42;83.40;;;41.07;;
66628;SDS011;53532;53.084;6.352;2023-02-07T06:49:09;83.97;;;40.73;;
66628;SDS011;53532;53.084;6.352;2023-02-07T06:51:36;79.97;;;41.13;;
66628;SDS011;53532;53.084;6.352;2023-02-07T06:54:02;76.90;;;38.80;;
66628;SDS011;53532;53.084;6.352;2023-02-07T06:56:32;76.17;;;37.67;;
66628;SDS011;53532;53.084;6.352;2023-02-07T06:58:58;75.17;;;38.03;;
66628;SDS011;53532;53.084;6.352;2023-02-07T07:01:24;75.97;;;38.60;;
66628;SDS011;53532;53.084;6.352;2023-02-07T07:03:52;77.73;;;39.60;;
66628;SDS011;53532;53.084;6.352;2023-02-07T07:06:18;77.17;;;38.17;;
66628;SDS011;53532;53.084;6.352;2023-02-07T07:08:44;76.47;;;40.67;;
66628;SDS011;53532;53.084;6.352;2023-02-07T07:11:10;99.77;;;50.50;;
66628;SDS011;53532;53.084;6.352;2023-02-07T07:13:37;99.37;;;53.30;;
66628;SDS011;53532;53.084;6.352;2023-02-07T07:16:03;87.53;;;48.60;;
66628;SDS011;53532;53.084;6.352;2023-02-07T07:18:30;88.73;;;48.47;;
66628;SDS011;53532;53.084;6.352;2023-02-07T07:20:57;83.20;;;45.93;;
66628;SDS011;53532;53.084;6.352;2023-02-07T07:23:23;79.30;;;43.53;;
66628;SDS011;53532;53.084;6.352;2023-02-07T07:25:49;78.67;;;42.33;;
66628;SDS011;53532;53.084;6.352;2023-02-07T07:28:16;79.90;;;42.00;;
66628;SDS011;53532;53.084;6.352;2023-02-07T07:30:42;77.00;;;41.17;;
66628;SDS011;53532;53.084;6.352;2023-02-07T07:33:09;79.83;;;40.17;;
66628;SDS011;53532;53.084;6.352;2023-02-07T07:35:35;73.83;;;39.87;;
66628;SDS011;53532;53.084;6.352;2023-02-07T07:38:03;75.07;;;39.57;;
66628;SDS011;53532;53.084;6.352;2023-02-07T07:40:29;79.40;;;40.87;;
66628;SDS011;53532;53.084;6.352;2023-02-07T07:42:55;73.60;;;39.63;;
66628;SDS011;53532;53.084;6.352;2023-02-07T07:45:21;73.57;;;39.70;;
66628;SDS011;53532;53.084;6.352;2023-02-07T07:47:47;78.60;;;40.90;;
66628;SDS011;53532;53.084;6.352;2023-02-07T07:50:14;71.73;;;38.97;;
66628;SDS011;53532;53.084;6.352;2023-02-07T07:52:40;73.10;;;38.47;;
66628;SDS011;53532;53.084;6.352;2023-02-07T07:55:08;65.60;;;37.63;;
66628;SDS011;53532;53.084;6.352;2023-02-07T07:57:34;67.70;;;38.03;;
66628;SDS011;53532;53.084;6.352;2023-02-07T08:00:01;74.97;;;37.73;;
66628;SDS011;53532;53.084;6.352;2023-02-07T08:02:27;71.23;;;38.17;;
66628;SDS011;53532;53.084;6.352;2023-02-07T08:04:54;70.03;;;37.60;;
66628;SDS011;53532;53.084;6.352;2023-02-07T08:07:20;67.00;;;36.10;;
66628;SDS011;53532;53.084;6.352;2023-02-07T08:09:46;65.70;;;36.90;;
66628;SDS011;53532;53.084;6.352;2023-02-07T08:12:13;69.27;;;37.70;;
66628;SDS011;53532;53.084;6.352;2023-02-07T08:14:40;71.07;;;39.27;;
66628;SDS011;53532;53.084;6.352;2023-02-07T08:17:06;67.63;;;37.57;;
66628;SDS011;53532;53.084;6.352;2023-02-07T08:19:32;74.10;;;40.10;;
66628;SDS011;53532;53.084;6.352;2023-02-07T08:21:58;76.37;;;41.20;;
66628;SDS011;53532;53.084;6.352;2023-02-07T08:24:24;78.30;;;41.77;;
66628;SDS011;53532;53.084;6.352;2023-02-07T08:26:52;82.87;;;42.47;;
66628;SDS011;53532;53.084;6.352;2023-02-07T08:29:19;76.10;;;41.40;;
66628;SDS011;53532;53.084;6.352;2023-02-07T08:31:46;73.07;;;41.47;;
66628;SDS011;53532;53.084;6.352;2023-02-07T08:34:13;78.20;;;43.20;;
66628;SDS011;53532;53.084;6.352;2023-02-07T08:36:39;80.87;;;42.60;;
66628;SDS011;53532;53.084;6.352;2023-02-07T08:39:05;75.03;;;41.83;;
66628;SDS011;53532;53.084;6.352;2023-02-07T08:41:31;86.63;;;43.53;;
66628;SDS011;53532;53.084;6.352;2023-02-07T08:43:57;76.80;;;41.13;;
66628;SDS011;53532;53.084;6.352;2023-02-07T08:46:25;83.17;;;44.90;;
66628;SDS011;53532;53.084;6.352;2023-02-07T08:48:51;80.03;;;42.87;;
66628;SDS011;53532;53.084;6.352;2023-02-07T08:51:17;73.03;;;41.07;;
66628;SDS011;53532;53.084;6.352;2023-02-07T08:53:43;74.13;;;41.37;;
66628;SDS011;53532;53.084;6.352;2023-02-07T08:56:09;74.40;;;41.97;;
66628;SDS011;53532;53.084;6.352;2023-02-07T08:58:36;79.67;;;43.47;;
66628;SDS011;53532;53.084;6.352;2023-02-07T09:01:02;67.53;;;40.80;;
66628;SDS011;53532;53.084;6.352;2023-02-07T09:03:29;74.53;;;40.67;;
66628;SDS011;53532;53.084;6.352;2023-02-07T09:05:56;68.27;;;39.00;;
66628;SDS011;53532;53.084;6.352;2023-02-07T09:08:23;69.53;;;39.20;;
66628;SDS011;53532;53.084;6.352;2023-02-07T09:10:49;70.03;;;39.30;;
66628;SDS011;53532;53.084;6.352;2023-02-07T09:13:15;72.10;;;39.17;;
66628;SDS011;53532;53.084;6.352;2023-02-07T09:15:41;73.23;;;39.80;;
66628;SDS011;53532;53.084;6.352;2023-02-07T09:18:07;62.63;;;37.70;;
66628;SDS011;53532;53.084;6.352;2023-02-07T09:20:35;74.07;;;40.07;;
66628;SDS011;53532;53.084;6.352;2023-02-07T09:23:03;63.07;;;36.77;;
66628;SDS011;53532;53.084;6.352;2023-02-07T09:25:44;67.10;;;38.22;;
66628;SDS011;53532;53.084;6.352;2023-02-07T09:28:11;63.50;;;37.93;;
66628;SDS011;53532;53.084;6.352;2023-02-07T09:30:38;62.00;;;35.97;;
66628;SDS011;53532;53.084;6.352;2023-02-07T09:33:04;57.60;;;34.80;;
66628;SDS011;53532;53.084;6.352;2023-02-07T09:35:35;58.40;;;34.93;;
66628;SDS011;53532;53.084;6.352;2023-02-07T09:38:02;50.78;;;33.58;;
66628;SDS011;53532;53.084;6.352;2023-02-07T09:40:28;59.50;;;34.30;;
66628;SDS011;53532;53.084;6.352;2023-02-07T09:42:57;54.27;;;34.83;;
66628;SDS011;53532;53.084;6.352;2023-02-07T09:45:26;49.90;;;33.43;;
66628;SDS011;53532;53.084;6.352;2023-02-07T09:48:01;56.83;;;33.40;;
66628;SDS011;53532;53.084;6.352;2023-02-07T09:50:29;53.40;;;33.73;;
66628;SDS011;53532;53.084;6.352;2023-02-07T09:52:58;57.80;;;34.13;;
66628;SDS011;53532;53.084;6.352;2023-02-07T09:55:27;54.33;;;33.57;;
66628;SDS011;53532;53.084;6.352;2023-02-07T09:57:58;52.60;;;33.53;;
66628;SDS011;53532;53.084;6.352;2023-02-07T10:00:26;56.53;;;34.80;;
66628;SDS011;53532;53.084;6.352;2023-02-07T10:02:54;52.53;;;34.33;;
66628;SDS011;53532;53.084;6.352;2023-02-07T10:05:25;55.73;;;35.07;;
66628;SDS011;53532;53.084;6.352;2023-02-07T10:07:52;52.93;;;35.10;;
66628;SDS011;53532;53.084;6.352;2023-02-07T10:10:21;54.93;;;35.10;;
66628;SDS011;53532;53.084;6.352;2023-02-07T10:13:03;56.53;;;36.67;;
66628;SDS011;53532;53.084;6.352;2023-02-07T10:15:35;60.97;;;36.88;;
66628;SDS011;53532;53.084;6.352;2023-02-07T10:20:45;55.67;;;34.85;;
66628;SDS011;53532;53.084;6.352;2023-02-07T10:23:17;56.87;;;34.40;;
66628;SDS011;53532;53.084;6.352;2023-02-07T10:25:49;55.37;;;34.27;;
66628;SDS011;53532;53.084;6.352;2023-02-07T10:28:27;49.83;;;32.50;;
66628;SDS011;53532;53.084;6.352;2023-02-07T10:30:57;52.10;;;33.13;;
66628;SDS011;53532;53.084;6.352;2023-02-07T10:33:28;52.37;;;34.27;;
66628;SDS011;53532;53.084;6.352;2023-02-07T10:35:56;57.33;;;34.75;;
66628;SDS011;53532;53.084;6.352;2023-02-07T10:38:26;52.37;;;32.67;;
66628;SDS011;53532;53.084;6.352;2023-02-07T10:40:58;50.13;;;32.40;;
66628;SDS011;53532;53.084;6.352;2023-02-07T10:43:26;56.00;;;35.93;;
66628;SDS011;53532;53.084;6.352;2023-02-07T10:45:53;51.97;;;35.73;;
66628;SDS011;53532;53.084;6.352;2023-02-07T10:48:20;56.50;;;35.70;;
66628;SDS011;53532;53.084;6.352;2023-02-07T10:50:46;55.37;;;34.83;;
66628;SDS011;53532;53.084;6.352;2023-02-07T10:53:13;52.37;;;34.77;;
66628;SDS011;53532;53.084;6.352;2023-02-07T10:56:00;52.90;;;35.17;;
66628;SDS011;53532;53.084;6.352;2023-02-07T10:58:32;52.40;;;33.90;;
66628;SDS011;53532;53.084;6.352;2023-02-07T11:01:03;59.77;;;36.83;;
66628;SDS011;53532;53.084;6.352;2023-02-07T11:03:29;55.10;;;35.77;;
66628;SDS011;53532;53.084;6.352;2023-02-07T11:05:56;56.13;;;34.07;;
66628;SDS011;53532;53.084;6.352;2023-02-07T11:08:24;59.63;;;34.40;;
66628;SDS011;53532;53.084;6.352;2023-02-07T11:10:51;59.07;;;34.27;;
66628;SDS011;53532;53.084;6.352;2023-02-07T11:13:20;52.90;;;33.90;;
66628;SDS011;53532;53.084;6.352;2023-02-07T11:15:47;53.47;;;34.50;;
66628;SDS011;53532;53.084;6.352;2023-02-07T11:18:34;56.87;;;34.93;;
66628;SDS011;53532;53.084;6.352;2023-02-07T11:21:05;52.20;;;33.00;;
66628;SDS011;53532;53.084;6.352;2023-02-07T11:23:32;55.73;;;33.73;;
66628;SDS011;53532;53.084;6.352;2023-02-07T11:25:58;54.27;;;33.57;;
66628;SDS011;53532;53.084;6.352;2023-02-07T11:28:28;55.97;;;34.53;;
66628;SDS011;53532;53.084;6.352;2023-02-07T11:30:56;59.00;;;34.43;;
66628;SDS011;53532;53.084;6.352;2023-02-07T11:33:24;50.53;;;32.47;;
66628;SDS011;53532;53.084;6.352;2023-02-07T11:36:12;52.67;;;32.20;;
66628;SDS011;53532;53.084;6.352;2023-02-07T11:38:47;52.43;;;30.77;;
66628;SDS011;53532;53.084;6.352;2023-02-07T11:41:18;48.17;;;30.77;;
66628;SDS011;53532;53.084;6.352;2023-02-07T11:43:53;42.63;;;28.50;;
66628;SDS011;53532;53.084;6.352;2023-02-07T11:46:19;44.50;;;28.43;;
66628;SDS011;53532;53.084;6.352;2023-02-07T11:48:46;43.27;;;29.57;;
66628;SDS011;53532;53.084;6.352;2023-02-07T11:51:14;40.97;;;27.17;;
66628;SDS011;53532;53.084;6.352;2023-02-07T11:53:43;43.33;;;26.67;;
66628;SDS011;53532;53.084;6.352;2023-02-07T11:56:19;43.80;;;27.30;;
66628;SDS011;53532;53.084;6.352;2023-02-07T11:58:45;46.97;;;28.27;;
66628;SDS011;53532;53.084;6.352;2023-02-07T12:01:16;41.87;;;26.40;;
66628;SDS011;53532;53.084;6.352;2023-02-07T12:03:43;41.63;;;26.57;;
66628;SDS011;53532;53.084;6.352;2023-02-07T12:06:13;43.10;;;27.80;;
66628;SDS011;53532;53.084;6.352;2023-02-07T12:08:41;43.67;;;26.60;;
66628;SDS011;53532;53.084;6.352;2023-02-07T12:11:09;44.20;;;27.47;;
66628;SDS011;53532;53.084;6.352;2023-02-07T12:13:38;41.83;;;26.37;;
66628;SDS011;53532;53.084;6.352;2023-02-07T12:16:07;39.70;;;27.40;;
66628;SDS011;53532;53.084;6.352;2023-02-07T12:18:37;45.13;;;28.20;;
66628;SDS011;53532;53.084;6.352;2023-02-07T12:21:08;41.45;;;26.67;;
66628;SDS011;53532;53.084;6.352;2023-02-07T12:23:39;38.50;;;26.63;;
66628;SDS011;53532;53.084;6.352;2023-02-07T12:26:10;40.60;;;26.60;;
66628;SDS011;53532;53.084;6.352;2023-02-07T12:28:39;40.70;;;27.40;;
66628;SDS011;53532;53.084;6.352;2023-02-07T12:31:10;37.67;;;26.17;;
66628;SDS011;53532;53.084;6.352;2023-02-07T12:33:41;43.53;;;27.13;;
66628;SDS011;53532;53.084;6.352;2023-02-07T12:36:11;40.70;;;27.07;;
66628;SDS011;53532;53.084;6.352;2023-02-07T12:38:41;40.03;;;27.03;;
66628;SDS011;53532;53.084;6.352;2023-02-07T12:41:09;38.33;;;25.53;;
66628;SDS011;53532;53.084;6.352;2023-02-07T12:43:40;39.77;;;25.93;;
66628;SDS011;53532;53.084;6.352;2023-02-07T12:46:16;41.77;;;26.10;;
66628;SDS011;53532;53.084;6.352;2023-02-07T12:48:53;39.40;;;25.50;;
66628;SDS011;53532;53.084;6.352;2023-02-07T12:51:22;37.40;;;25.27;;
66628;SDS011;53532;53.084;6.352;2023-02-07T12:54:05;37.55;;;24.73;;
66628;SDS011;53532;53.084;6.352;2023-02-07T12:56:41;36.53;;;23.93;;
66628;SDS011;53532;53.084;6.352;2023-02-07T12:59:18;38.00;;;23.43;;
66628;SDS011;53532;53.084;6.352;2023-02-07T13:01:48;35.60;;;23.27;;
66628;SDS011;53532;53.084;6.352;2023-02-07T13:04:30;35.60;;;24.33;;
66628;SDS011;53532;53.084;6.352;2023-02-07T13:07:04;35.33;;;23.43;;
66628;SDS011;53532;53.084;6.352;2023-02-07T13:09:36;34.90;;;23.50;;
66628;SDS011;53532;53.084;6.352;2023-02-07T13:12:06;41.08;;;23.73;;
66628;SDS011;53532;53.084;6.352;2023-02-07T13:14:37;35.00;;;22.77;;
66628;SDS011;53532;53.084;6.352;2023-02-07T13:17:17;36.45;;;23.75;;
66628;SDS011;53532;53.084;6.352;2023-02-07T13:19:49;34.35;;;22.33;;
66628;SDS011;53532;53.084;6.352;2023-02-07T13:22:20;33.97;;;22.63;;
66628;SDS011;53532;53.084;6.352;2023-02-07T13:24:49;32.20;;;22.38;;
66628;SDS011;53532;53.084;6.352;2023-02-07T13:27:16;34.37;;;23.50;;
66628;SDS011;53532;53.084;6.352;2023-02-07T13:29:45;33.93;;;22.40;;
66628;SDS011;53532;53.084;6.352;2023-02-07T13:32:13;34.13;;;22.57;;
66628;SDS011;53532;53.084;6.352;2023-02-07T13:34:41;35.13;;;22.70;;
66628;SDS011;53532;53.084;6.352;2023-02-07T13:37:10;31.47;;;22.20;;
66628;SDS011;53532;53.084;6.352;2023-02-07T13:39:40;35.33;;;22.73;;
66628;SDS011;53532;53.084;6.352;2023-02-07T13:42:10;32.23;;;20.37;;
66628;SDS011;53532;53.084;6.352;2023-02-07T13:44:39;33.47;;;22.03;;
66628;SDS011;53532;53.084;6.352;2023-02-07T13:47:11;32.57;;;21.67;;
66628;SDS011;53532;53.084;6.352;2023-02-07T13:49:40;34.03;;;21.65;;
66628;SDS011;53532;53.084;6.352;2023-02-07T13:52:08;33.20;;;22.00;;
66628;SDS011;53532;53.084;6.352;2023-02-07T13:54:39;31.47;;;21.07;;
66628;SDS011;53532;53.084;6.352;2023-02-07T13:57:17;31.20;;;20.30;;
66628;SDS011;53532;53.084;6.352;2023-02-07T14:00:16;35.40;;;21.70;;
66628;SDS011;53532;53.084;6.352;2023-02-07T14:02:45;35.17;;;21.65;;
66628;SDS011;53532;53.084;6.352;2023-02-07T14:05:17;32.70;;;20.60;;
66628;SDS011;53532;53.084;6.352;2023-02-07T14:07:47;33.17;;;20.83;;
66628;SDS011;53532;53.084;6.352;2023-02-07T14:10:28;30.37;;;20.50;;
66628;SDS011;53532;53.084;6.352;2023-02-07T14:12:59;30.17;;;20.37;;
66628;SDS011;53532;53.084;6.352;2023-02-07T14:20:58;32.03;;;21.92;;
66628;SDS011;53532;53.084;6.352;2023-02-07T14:23:33;33.08;;;21.45;;
66628;SDS011;53532;53.084;6.352;2023-02-07T14:28:53;31.88;;;21.40;;
66628;SDS011;53532;53.084;6.352;2023-02-07T14:34:10;30.77;;;20.73;;
66628;SDS011;53532;53.084;6.352;2023-02-07T14:36:38;29.33;;;19.67;;
66628;SDS011;53532;53.084;6.352;2023-02-07T14:39:05;30.83;;;20.93;;